Tufts Univ, Massachusetts
Current Conditions -  °F | °C
As of 9:11 PM on Tuesday 21 Oct 2014 (Local Time) from KBOS Reporting Station
Overcast Overcast  
Wind Chill: 57°   Ceiling: 700
Heat Index: 57°   Visibility: 10mi
Dew Point: 54°   Wind: 12mph
Humidity: 88%   Direction: 20°NNE
Pressure: 29.96"   Gusts: NA
Location:  42.4184°N, 71.1069°W
Report Text: KBOS 220111Z 02010KT 10SM BKN007 OVC028 14/12 A2996 RMK AO2
Loading
Personal Weather Stations






























Interactive Weather Map
Tropical Storm Tracking
New forecast layout! Learn more

10-Day Weather Forecast

Advertisements
Track Severe Weather on mobile